sensor_id;sensor_type;location;lat;lon;timestamp;pressure;altitude;pressure_sealevel;temperature;humidity
74163;BME280;62515;52.758;5.076;2023-05-17T00:01:54;102583.00;;;9.91;100.00
74163;BME280;62515;52.758;5.076;2023-05-17T00:04:21;102590.78;;;9.95;100.00
74163;BME280;62515;52.758;5.076;2023-05-17T00:06:47;102593.31;;;9.98;100.00
74163;BME280;62515;52.758;5.076;2023-05-17T00:09:14;102592.81;;;10.11;100.00
74163;BME280;62515;52.758;5.076;2023-05-17T00:11:41;102579.28;;;10.17;100.00
74163;BME280;62515;52.758;5.076;2023-05-17T00:14:09;102568.66;;;10.17;100.00
74163;BME280;62515;52.758;5.076;2023-05-17T00:16:36;102586.09;;;10.24;100.00
74163;BME280;62515;52.758;5.076;2023-05-17T00:19:03;102585.34;;;10.20;100.00
74163;BME280;62515;52.758;5.076;2023-05-17T00:21:30;102585.69;;;10.11;100.00
74163;BME280;62515;52.758;5.076;2023-05-17T00:23:57;102584.00;;;10.09;100.00
74163;BME280;62515;52.758;5.076;2023-05-17T00:26:24;102582.31;;;10.08;100.00
74163;BME280;62515;52.758;5.076;2023-05-17T00:28:50;102577.78;;;10.10;100.00
74163;BME280;62515;52.758;5.076;2023-05-17T00:31:19;102566.97;;;9.92;100.00
74163;BME280;62515;52.758;5.076;2023-05-17T00:33:45;102574.94;;;9.92;100.00
74163;BME280;62515;52.758;5.076;2023-05-17T00:36:12;102579.16;;;9.98;100.00
74163;BME280;62515;52.758;5.076;2023-05-17T00:38:39;102578.28;;;9.97;100.00
74163;BME280;62515;52.758;5.076;2023-05-17T00:41:06;102579.22;;;9.96;100.00
74163;BME280;62515;52.758;5.076;2023-05-17T00:43:33;102587.97;;;9.98;100.00
74163;BME280;62515;52.758;5.076;2023-05-17T00:46:00;102580.13;;;9.95;100.00
74163;BME280;62515;52.758;5.076;2023-05-17T00:48:28;102579.09;;;9.99;100.00
74163;BME280;62515;52.758;5.076;2023-05-17T00:50:55;102586.31;;;9.96;100.00
74163;BME280;62515;52.758;5.076;2023-05-17T00:53:23;102583.91;;;9.90;100.00
74163;BME280;62515;52.758;5.076;2023-05-17T00:55:52;102568.47;;;9.78;100.00
74163;BME280;62515;52.758;5.076;2023-05-17T00:58:19;102576.50;;;9.76;100.00
74163;BME280;62515;52.758;5.076;2023-05-17T01:00:46;102580.91;;;9.56;100.00
74163;BME280;62515;52.758;5.076;2023-05-17T01:03:13;102583.09;;;9.44;100.00
74163;BME280;62515;52.758;5.076;2023-05-17T01:05:41;102592.19;;;9.39;100.00
74163;BME280;62515;52.758;5.076;2023-05-17T01:08:08;102592.75;;;9.24;100.00
74163;BME280;62515;52.758;5.076;2023-05-17T01:10:40;102598.38;;;9.16;100.00
74163;BME280;62515;52.758;5.076;2023-05-17T01:13:14;102601.44;;;9.06;100.00
74163;BME280;62515;52.758;5.076;2023-05-17T01:15:46;102603.50;;;8.98;100.00
74163;BME280;62515;52.758;5.076;2023-05-17T01:18:20;102609.69;;;8.98;100.00
74163;BME280;62515;52.758;5.076;2023-05-17T01:20:51;102605.81;;;8.83;100.00
74163;BME280;62515;52.758;5.076;2023-05-17T01:23:32;102611.53;;;8.71;100.00
74163;BME280;62515;52.758;5.076;2023-05-17T01:26:06;102612.75;;;8.63;100.00
74163;BME280;62515;52.758;5.076;2023-05-17T01:28:36;102605.03;;;8.55;100.00
74163;BME280;62515;52.758;5.076;2023-05-17T01:31:04;102602.81;;;8.43;100.00
74163;BME280;62515;52.758;5.076;2023-05-17T01:33:33;102608.84;;;8.48;100.00
74163;BME280;62515;52.758;5.076;2023-05-17T01:36:00;102609.88;;;8.44;100.00
74163;BME280;62515;52.758;5.076;2023-05-17T01:38:27;102612.56;;;8.43;100.00
74163;BME280;62515;52.758;5.076;2023-05-17T01:40:57;102601.28;;;8.36;100.00
74163;BME280;62515;52.758;5.076;2023-05-17T01:43:33;102613.63;;;8.38;100.00
74163;BME280;62515;52.758;5.076;2023-05-17T01:46:11;102612.13;;;8.30;100.00
74163;BME280;62515;52.758;5.076;2023-05-17T01:48:43;102621.94;;;8.28;100.00
74163;BME280;62515;52.758;5.076;2023-05-17T01:51:17;102612.19;;;8.27;100.00
74163;BME280;62515;52.758;5.076;2023-05-17T01:53:47;102620.25;;;8.24;100.00
74163;BME280;62515;52.758;5.076;2023-05-17T01:56:19;102621.28;;;8.20;100.00
74163;BME280;62515;52.758;5.076;2023-05-17T01:58:47;102618.16;;;8.07;100.00
74163;BME280;62515;52.758;5.076;2023-05-17T02:01:17;102621.75;;;8.06;100.00
74163;BME280;62515;52.758;5.076;2023-05-17T02:03:46;102622.88;;;7.99;100.00
74163;BME280;62515;52.758;5.076;2023-05-17T02:06:13;102619.53;;;7.93;100.00
74163;BME280;62515;52.758;5.076;2023-05-17T02:08:40;102613.78;;;7.80;100.00
74163;BME280;62515;52.758;5.076;2023-05-17T02:11:07;102621.63;;;7.83;100.00
74163;BME280;62515;52.758;5.076;2023-05-17T02:13:34;102623.63;;;7.75;100.00
74163;BME280;62515;52.758;5.076;2023-05-17T02:16:02;102625.78;;;7.64;100.00
74163;BME280;62515;52.758;5.076;2023-05-17T02:18:30;102627.56;;;7.62;100.00
74163;BME280;62515;52.758;5.076;2023-05-17T02:20:57;102633.84;;;7.59;100.00
74163;BME280;62515;52.758;5.076;2023-05-17T02:23:24;102634.91;;;7.54;100.00
74163;BME280;62515;52.758;5.076;2023-05-17T02:25:51;102626.28;;;7.47;100.00
74163;BME280;62515;52.758;5.076;2023-05-17T02:28:18;102636.00;;;7.47;100.00
74163;BME280;62515;52.758;5.076;2023-05-17T02:30:45;102647.72;;;7.38;100.00
74163;BME280;62515;52.758;5.076;2023-05-17T02:33:12;102648.66;;;7.37;100.00
74163;BME280;62515;52.758;5.076;2023-05-17T02:35:40;102638.28;;;7.29;100.00
74163;BME280;62515;52.758;5.076;2023-05-17T02:38:07;102649.94;;;7.24;100.00
74163;BME280;62515;52.758;5.076;2023-05-17T02:40:34;102648.97;;;7.26;100.00
74163;BME280;62515;52.758;5.076;2023-05-17T02:43:01;102644.91;;;7.15;100.00
74163;BME280;62515;52.758;5.076;2023-05-17T02:45:29;102656.28;;;7.18;100.00
74163;BME280;62515;52.758;5.076;2023-05-17T02:47:56;102653.66;;;7.17;100.00
74163;BME280;62515;52.758;5.076;2023-05-17T02:50:23;102652.00;;;7.13;100.00
74163;BME280;62515;52.758;5.076;2023-05-17T02:52:51;102650.19;;;7.15;100.00
74163;BME280;62515;52.758;5.076;2023-05-17T02:55:18;102649.16;;;7.19;100.00
74163;BME280;62515;52.758;5.076;2023-05-17T02:57:45;102651.72;;;7.22;100.00
74163;BME280;62515;52.758;5.076;2023-05-17T03:00:13;102649.16;;;7.19;100.00
74163;BME280;62515;52.758;5.076;2023-05-17T03:02:40;102652.66;;;7.21;100.00
74163;BME280;62515;52.758;5.076;2023-05-17T03:05:07;102654.63;;;7.14;100.00
74163;BME280;62515;52.758;5.076;2023-05-17T03:07:36;102657.28;;;7.13;100.00
74163;BME280;62515;52.758;5.076;2023-05-17T03:10:05;102654.56;;;7.16;100.00
74163;BME280;62515;52.758;5.076;2023-05-17T03:12:37;102657.03;;;7.22;100.00
74163;BME280;62515;52.758;5.076;2023-05-17T03:15:05;102650.84;;;7.23;100.00
74163;BME280;62515;52.758;5.076;2023-05-17T03:17:32;102649.66;;;7.33;100.00
74163;BME280;62515;52.758;5.076;2023-05-17T03:19:59;102669.78;;;7.38;100.00
74163;BME280;62515;52.758;5.076;2023-05-17T03:22:28;102656.59;;;7.37;100.00
74163;BME280;62515;52.758;5.076;2023-05-17T03:24:56;102654.03;;;7.34;100.00
74163;BME280;62515;52.758;5.076;2023-05-17T03:27:26;102666.63;;;7.26;100.00
74163;BME280;62515;52.758;5.076;2023-05-17T03:29:53;102662.69;;;7.10;100.00
74163;BME280;62515;52.758;5.076;2023-05-17T03:32:21;102665.06;;;7.19;100.00
74163;BME280;62515;52.758;5.076;2023-05-17T03:34:48;102664.16;;;7.20;100.00
74163;BME280;62515;52.758;5.076;2023-05-17T03:37:16;102669.63;;;7.14;100.00
74163;BME280;62515;52.758;5.076;2023-05-17T03:39:43;102673.19;;;7.13;100.00
74163;BME280;62515;52.758;5.076;2023-05-17T03:42:10;102680.13;;;7.17;100.00
74163;BME280;62515;52.758;5.076;2023-05-17T03:44:39;102675.81;;;7.14;100.00
74163;BME280;62515;52.758;5.076;2023-05-17T03:47:06;102671.38;;;7.15;100.00
74163;BME280;62515;52.758;5.076;2023-05-17T03:49:33;102676.75;;;7.12;100.00
74163;BME280;62515;52.758;5.076;2023-05-17T03:52:01;102676.59;;;7.18;100.00
74163;BME280;62515;52.758;5.076;2023-05-17T03:54:28;102687.97;;;7.21;100.00
74163;BME280;62515;52.758;5.076;2023-05-17T03:56:55;102691.44;;;7.22;100.00
74163;BME280;62515;52.758;5.076;2023-05-17T03:59:22;102681.97;;;7.15;100.00
74163;BME280;62515;52.758;5.076;2023-05-17T04:01:51;102693.28;;;7.20;100.00
74163;BME280;62515;52.758;5.076;2023-05-17T04:04:17;102692.22;;;7.27;100.00
74163;BME280;62515;52.758;5.076;2023-05-17T04:06:44;102688.66;;;7.28;100.00
74163;BME280;62515;52.758;5.076;2023-05-17T04:09:11;102686.16;;;7.22;100.00
74163;BME280;62515;52.758;5.076;2023-05-17T04:11:38;102694.19;;;7.19;100.00
74163;BME280;62515;52.758;5.076;2023-05-17T04:14:05;102700.09;;;7.28;100.00
74163;BME280;62515;52.758;5.076;2023-05-17T04:16:32;102699.28;;;7.26;100.00
74163;BME280;62515;52.758;5.076;2023-05-17T04:19:00;102703.94;;;7.18;100.00
74163;BME280;62515;52.758;5.076;2023-05-17T04:21:30;102707.59;;;7.13;100.00
74163;BME280;62515;52.758;5.076;2023-05-17T04:23:57;102716.41;;;7.13;100.00
74163;BME280;62515;52.758;5.076;2023-05-17T04:26:25;102722.50;;;7.17;100.00
74163;BME280;62515;52.758;5.076;2023-05-17T04:28:52;102722.91;;;7.34;100.00
74163;BME280;62515;52.758;5.076;2023-05-17T04:31:18;102726.75;;;7.53;100.00
74163;BME280;62515;52.758;5.076;2023-05-17T04:33:46;102732.50;;;7.67;100.00
74163;BME280;62515;52.758;5.076;2023-05-17T04:36:14;102746.03;;;7.87;100.00
74163;BME280;62515;52.758;5.076;2023-05-17T04:38:41;102742.94;;;8.03;100.00
74163;BME280;62515;52.758;5.076;2023-05-17T04:41:11;102737.34;;;8.12;100.00
74163;BME280;62515;52.758;5.076;2023-05-17T04:43:38;102735.75;;;8.06;100.00
74163;BME280;62515;52.758;5.076;2023-05-17T04:46:10;102746.00;;;8.17;100.00
74163;BME280;62515;52.758;5.076;2023-05-17T04:48:37;102745.22;;;8.15;100.00
74163;BME280;62515;52.758;5.076;2023-05-17T04:51:05;102744.31;;;8.16;100.00
74163;BME280;62515;52.758;5.076;2023-05-17T04:53:33;102747.66;;;8.21;100.00
74163;BME280;62515;52.758;5.076;2023-05-17T04:56:06;102753.09;;;8.16;100.00
74163;BME280;62515;52.758;5.076;2023-05-17T04:58:34;102760.31;;;8.13;100.00
74163;BME280;62515;52.758;5.076;2023-05-17T05:01:04;102750.50;;;8.15;100.00
74163;BME280;62515;52.758;5.076;2023-05-17T05:03:35;102769.88;;;8.17;100.00
74163;BME280;62515;52.758;5.076;2023-05-17T05:06:07;102779.69;;;8.15;100.00
74163;BME280;62515;52.758;5.076;2023-05-17T05:08:36;102776.84;;;8.21;100.00
74163;BME280;62515;52.758;5.076;2023-05-17T05:11:06;102790.00;;;8.24;100.00
74163;BME280;62515;52.758;5.076;2023-05-17T05:13:33;102774.00;;;8.27;100.00
74163;BME280;62515;52.758;5.076;2023-05-17T05:15:59;102782.03;;;8.24;100.00
74163;BME280;62515;52.758;5.076;2023-05-17T05:18:27;102793.38;;;8.30;100.00
74163;BME280;62515;52.758;5.076;2023-05-17T05:20:55;102798.53;;;8.35;100.00
74163;BME280;62515;52.758;5.076;2023-05-17T05:23:23;102791.00;;;8.49;100.00
74163;BME280;62515;52.758;5.076;2023-05-17T05:25:52;102800.38;;;8.61;100.00
74163;BME280;62515;52.758;5.076;2023-05-17T05:28:19;102809.03;;;8.66;100.00
74163;BME280;62515;52.758;5.076;2023-05-17T05:30:47;102801.44;;;8.81;100.00
74163;BME280;62515;52.758;5.076;2023-05-17T05:33:14;102797.94;;;8.81;100.00
74163;BME280;62515;52.758;5.076;2023-05-17T05:35:41;102796.50;;;8.71;100.00
74163;BME280;62515;52.758;5.076;2023-05-17T05:38:08;102801.50;;;8.80;100.00
74163;BME280;62515;52.758;5.076;2023-05-17T05:40:35;102804.81;;;8.86;100.00
74163;BME280;62515;52.758;5.076;2023-05-17T05:43:03;102800.00;;;8.98;100.00
74163;BME280;62515;52.758;5.076;2023-05-17T05:45:31;102802.50;;;9.02;100.00
74163;BME280;62515;52.758;5.076;2023-05-17T05:48:01;102814.16;;;8.98;100.00
74163;BME280;62515;52.758;5.076;2023-05-17T05:50:28;102819.22;;;9.06;100.00
74163;BME280;62515;52.758;5.076;2023-05-17T05:53:06;102819.00;;;9.12;100.00
74163;BME280;62515;52.758;5.076;2023-05-17T05:55:53;102822.94;;;9.26;100.00
74163;BME280;62515;52.758;5.076;2023-05-17T05:58:21;102827.06;;;9.35;100.00
74163;BME280;62515;52.758;5.076;2023-05-17T06:00:49;102827.84;;;9.37;100.00
74163;BME280;62515;52.758;5.076;2023-05-17T06:03:19;102826.97;;;9.36;100.00
74163;BME280;62515;52.758;5.076;2023-05-17T06:05:46;102819.44;;;9.24;100.00
74163;BME280;62515;52.758;5.076;2023-05-17T06:08:13;102834.75;;;9.42;100.00
74163;BME280;62515;52.758;5.076;2023-05-17T06:10:40;102836.16;;;9.53;100.00
74163;BME280;62515;52.758;5.076;2023-05-17T06:13:06;102845.38;;;9.67;100.00
74163;BME280;62515;52.758;5.076;2023-05-17T06:15:35;102847.06;;;9.45;100.00
74163;BME280;62515;52.758;5.076;2023-05-17T06:18:02;102848.19;;;9.38;100.00
74163;BME280;62515;52.758;5.076;2023-05-17T06:20:29;102849.41;;;9.54;100.00
74163;BME280;62515;52.758;5.076;2023-05-17T06:22:58;102850.16;;;9.58;100.00
74163;BME280;62515;52.758;5.076;2023-05-17T06:25:25;102857.78;;;9.67;100.00
74163;BME280;62515;52.758;5.076;2023-05-17T06:27:51;102856.28;;;9.84;100.00
74163;BME280;62515;52.758;5.076;2023-05-17T06:30:18;102865.59;;;10.21;100.00
74163;BME280;62515;52.758;5.076;2023-05-17T06:32:47;102866.19;;;10.50;100.00
74163;BME280;62515;52.758;5.076;2023-05-17T06:35:13;102870.72;;;10.70;100.00
74163;BME280;62515;52.758;5.076;2023-05-17T06:37:40;102868.66;;;10.55;100.00
74163;BME280;62515;52.758;5.076;2023-05-17T06:40:08;102880.16;;;10.34;100.00
74163;BME280;62515;52.758;5.076;2023-05-17T06:42:42;102859.06;;;10.05;100.00
74163;BME280;62515;52.758;5.076;2023-05-17T06:45:11;102882.59;;;10.17;100.00
74163;BME280;62515;52.758;5.076;2023-05-17T06:47:37;102873.50;;;10.22;100.00
74163;BME280;62515;52.758;5.076;2023-05-17T06:50:07;102877.38;;;9.89;100.00
74163;BME280;62515;52.758;5.076;2023-05-17T06:52:34;102882.03;;;9.82;100.00
74163;BME280;62515;52.758;5.076;2023-05-17T06:55:01;102891.25;;;9.72;100.00
74163;BME280;62515;52.758;5.076;2023-05-17T06:57:28;102898.28;;;9.75;100.00
74163;BME280;62515;52.758;5.076;2023-05-17T06:59:55;102882.94;;;9.58;100.00
74163;BME280;62515;52.758;5.076;2023-05-17T07:02:22;102896.69;;;9.94;100.00
74163;BME280;62515;52.758;5.076;2023-05-17T07:04:48;102899.19;;;9.98;100.00
74163;BME280;62515;52.758;5.076;2023-05-17T07:07:16;102905.84;;;10.10;100.00
74163;BME280;62515;52.758;5.076;2023-05-17T07:13:37;102915.56;;;10.36;100.00
74163;BME280;62515;52.758;5.076;2023-05-17T07:16:06;102912.13;;;10.79;100.00
74163;BME280;62515;52.758;5.076;2023-05-17T07:18:33;102912.00;;;11.03;100.00
74163;BME280;62515;52.758;5.076;2023-05-17T07:21:00;102916.00;;;11.14;100.00
74163;BME280;62515;52.758;5.076;2023-05-17T07:23:28;102909.91;;;11.74;100.00
74163;BME280;62515;52.758;5.076;2023-05-17T07:25:55;102918.88;;;11.51;100.00
74163;BME280;62515;52.758;5.076;2023-05-17T07:28:22;102923.09;;;11.35;100.00
74163;BME280;62515;52.758;5.076;2023-05-17T07:30:49;102928.03;;;11.24;100.00
74163;BME280;62515;52.758;5.076;2023-05-17T07:33:16;102925.75;;;10.70;100.00
74163;BME280;62515;52.758;5.076;2023-05-17T07:35:42;102929.50;;;11.09;100.00
74163;BME280;62515;52.758;5.076;2023-05-17T07:38:09;102927.47;;;11.37;100.00
74163;BME280;62515;52.758;5.076;2023-05-17T07:40:37;102935.47;;;11.37;100.00
74163;BME280;62515;52.758;5.076;2023-05-17T07:43:04;102935.16;;;11.23;100.00
74163;BME280;62515;52.758;5.076;2023-05-17T07:45:31;102934.63;;;11.35;100.00
74163;BME280;62515;52.758;5.076;2023-05-17T07:47:58;102943.19;;;12.63;100.00
74163;BME280;62515;52.758;5.076;2023-05-17T07:50:25;102929.31;;;13.30;100.00
74163;BME280;62515;52.758;5.076;2023-05-17T07:52:52;102936.91;;;14.06;100.00
74163;BME280;62515;52.758;5.076;2023-05-17T07:55:18;102933.81;;;13.63;100.00
74163;BME280;62515;52.758;5.076;2023-05-17T07:57:47;102944.72;;;13.42;100.00
74163;BME280;62515;52.758;5.076;2023-05-17T08:00:15;102951.44;;;12.96;100.00
74163;BME280;62515;52.758;5.076;2023-05-17T08:02:41;102947.00;;;13.14;100.00
74163;BME280;62515;52.758;5.076;2023-05-17T08:05:08;102955.69;;;12.63;100.00
74163;BME280;62515;52.758;5.076;2023-05-17T08:07:35;102960.19;;;12.23;100.00
74163;BME280;62515;52.758;5.076;2023-05-17T08:10:03;102956.81;;;11.99;100.00
74163;BME280;62515;52.758;5.076;2023-05-17T08:12:30;102954.00;;;13.35;100.00
74163;BME280;62515;52.758;5.076;2023-05-17T08:14:58;102946.94;;;14.52;100.00
74163;BME280;62515;52.758;5.076;2023-05-17T08:17:25;102955.88;;;14.19;100.00
74163;BME280;62515;52.758;5.076;2023-05-17T08:19:52;102953.22;;;13.14;100.00
74163;BME280;62515;52.758;5.076;2023-05-17T08:22:19;102955.91;;;12.95;100.00
74163;BME280;62515;52.758;5.076;2023-05-17T08:24:45;102962.63;;;12.48;100.00
74163;BME280;62515;52.758;5.076;2023-05-17T08:27:12;102957.47;;;12.43;100.00
74163;BME280;62515;52.758;5.076;2023-05-17T08:29:39;102953.13;;;12.22;100.00
74163;BME280;62515;52.758;5.076;2023-05-17T08:32:08;102956.34;;;12.86;100.00
74163;BME280;62515;52.758;5.076;2023-05-17T08:34:35;102953.53;;;11.73;100.00
74163;BME280;62515;52.758;5.076;2023-05-17T08:37:02;102954.28;;;11.76;100.00
74163;BME280;62515;52.758;5.076;2023-05-17T08:39:29;102963.84;;;12.78;100.00
74163;BME280;62515;52.758;5.076;2023-05-17T08:41:56;102953.19;;;12.97;100.00
74163;BME280;62515;52.758;5.076;2023-05-17T08:44:23;102947.78;;;14.03;100.00
74163;BME280;62515;52.758;5.076;2023-05-17T08:46:50;102954.56;;;14.91;100.00
74163;BME280;62515;52.758;5.076;2023-05-17T08:49:21;102959.38;;;15.32;100.00
74163;BME280;62515;52.758;5.076;2023-05-17T08:51:48;102952.97;;;15.50;100.00
74163;BME280;62515;52.758;5.076;2023-05-17T08:54:16;102966.91;;;15.09;100.00
74163;BME280;62515;52.758;5.076;2023-05-17T08:56:44;102964.66;;;15.33;100.00
74163;BME280;62515;52.758;5.076;2023-05-17T08:59:14;102959.66;;;14.96;100.00
74163;BME280;62515;52.758;5.076;2023-05-17T09:01:42;102964.97;;;14.49;100.00
74163;BME280;62515;52.758;5.076;2023-05-17T09:04:09;102962.44;;;13.96;100.00
74163;BME280;62515;52.758;5.076;2023-05-17T09:06:38;102969.94;;;14.72;100.00
74163;BME280;62515;52.758;5.076;2023-05-17T09:09:04;102975.84;;;15.10;100.00
74163;BME280;62515;52.758;5.076;2023-05-17T09:11:31;102980.56;;;13.74;100.00
74163;BME280;62515;52.758;5.076;2023-05-17T09:13:59;102974.19;;;13.59;100.00
74163;BME280;62515;52.758;5.076;2023-05-17T09:16:27;102981.75;;;13.68;100.00
74163;BME280;62515;52.758;5.076;2023-05-17T09:18:55;102972.31;;;14.28;100.00
74163;BME280;62515;52.758;5.076;2023-05-17T09:21:23;102971.63;;;14.42;100.00
74163;BME280;62515;52.758;5.076;2023-05-17T09:23:53;102991.16;;;13.03;100.00
74163;BME280;62515;52.758;5.076;2023-05-17T09:26:41;102995.28;;;13.65;100.00
74163;BME280;62515;52.758;5.076;2023-05-17T09:29:08;102992.97;;;15.07;100.00
74163;BME280;62515;52.758;5.076;2023-05-17T09:31:35;102978.88;;;14.05;100.00
74163;BME280;62515;52.758;5.076;2023-05-17T09:34:02;102990.66;;;13.50;100.00
74163;BME280;62515;52.758;5.076;2023-05-17T09:36:29;102992.28;;;15.19;100.00
74163;BME280;62515;52.758;5.076;2023-05-17T09:38:59;102997.63;;;15.35;100.00
74163;BME280;62515;52.758;5.076;2023-05-17T09:41:26;102992.75;;;15.73;100.00
74163;BME280;62515;52.758;5.076;2023-05-17T09:43:57;103006.28;;;14.93;100.00
74163;BME280;62515;52.758;5.076;2023-05-17T09:46:24;103004.16;;;14.00;100.00
74163;BME280;62515;52.758;5.076;2023-05-17T09:48:54;103004.66;;;14.58;100.00
74163;BME280;62515;52.758;5.076;2023-05-17T09:51:32;102983.16;;;13.03;100.00
74163;BME280;62515;52.758;5.076;2023-05-17T09:54:01;103000.72;;;13.98;100.00
74163;BME280;62515;52.758;5.076;2023-05-17T09:56:29;103001.22;;;14.22;100.00
74163;BME280;62515;52.758;5.076;2023-05-17T09:59:00;102995.34;;;14.65;100.00
74163;BME280;62515;52.758;5.076;2023-05-17T10:01:27;103009.66;;;14.81;100.00
74163;BME280;62515;52.758;5.076;2023-05-17T10:03:59;103006.03;;;15.13;100.00
74163;BME280;62515;52.758;5.076;2023-05-17T10:06:27;103009.63;;;15.75;100.00
74163;BME280;62515;52.758;5.076;2023-05-17T10:09:15;103017.63;;;13.98;100.00
74163;BME280;62515;52.758;5.076;2023-05-17T10:11:45;103008.47;;;14.70;100.00
74163;BME280;62515;52.758;5.076;2023-05-17T10:14:16;103013.59;;;14.41;100.00
74163;BME280;62515;52.758;5.076;2023-05-17T10:16:44;103021.25;;;14.49;100.00
74163;BME280;62515;52.758;5.076;2023-05-17T10:19:12;103025.28;;;13.53;100.00
74163;BME280;62515;52.758;5.076;2023-05-17T10:21:40;103009.22;;;14.89;100.00
74163;BME280;62515;52.758;5.076;2023-05-17T10:24:08;103022.53;;;14.07;100.00
74163;BME280;62515;52.758;5.076;2023-05-17T10:26:38;103010.22;;;14.38;100.00
74163;BME280;62515;52.758;5.076;2023-05-17T10:29:06;103019.00;;;15.37;100.00
74163;BME280;62515;52.758;5.076;2023-05-17T10:31:33;102998.25;;;15.56;100.00
74163;BME280;62515;52.758;5.076;2023-05-17T10:34:01;103003.00;;;14.88;100.00
74163;BME280;62515;52.758;5.076;2023-05-17T10:36:28;103000.78;;;13.96;100.00
74163;BME280;62515;52.758;5.076;2023-05-17T10:38:56;103006.13;;;15.59;100.00
74163;BME280;62515;52.758;5.076;2023-05-17T10:41:27;103010.69;;;16.60;100.00
74163;BME280;62515;52.758;5.076;2023-05-17T10:43:58;103007.66;;;15.00;100.00
74163;BME280;62515;52.758;5.076;2023-05-17T10:46:28;103013.59;;;13.55;100.00
74163;BME280;62515;52.758;5.076;2023-05-17T10:48:56;103023.94;;;13.44;100.00
74163;BME280;62515;52.758;5.076;2023-05-17T10:51:25;103010.81;;;15.08;100.00
74163;BME280;62515;52.758;5.076;2023-05-17T10:54:07;103026.63;;;15.44;100.00
74163;BME280;62515;52.758;5.076;2023-05-17T10:56:39;103008.75;;;17.32;100.00
74163;BME280;62515;52.758;5.076;2023-05-17T10:59:32;103014.56;;;17.11;100.00
74163;BME280;62515;52.758;5.076;2023-05-17T11:02:01;103021.00;;;16.52;100.00
74163;BME280;62515;52.758;5.076;2023-05-17T11:04:33;103015.50;;;16.11;100.00
74163;BME280;62515;52.758;5.076;2023-05-17T11:07:21;103029.22;;;15.46;100.00
74163;BME280;62515;52.758;5.076;2023-05-17T11:09:50;103027.38;;;16.07;100.00
74163;BME280;62515;52.758;5.076;2023-05-17T11:12:27;103032.25;;;15.24;100.00
74163;BME280;62515;52.758;5.076;2023-05-17T11:14:58;103010.88;;;15.99;100.00
74163;BME280;62515;52.758;5.076;2023-05-17T11:17:26;103019.25;;;16.23;100.00
74163;BME280;62515;52.758;5.076;2023-05-17T11:20:08;103024.28;;;14.91;100.00
74163;BME280;62515;52.758;5.076;2023-05-17T11:22:40;103026.84;;;15.71;100.00
74163;BME280;62515;52.758;5.076;2023-05-17T11:25:09;103017.69;;;15.75;100.00
74163;BME280;62515;52.758;5.076;2023-05-17T11:27:39;103020.41;;;15.59;100.00
74163;BME280;62515;52.758;5.076;2023-05-17T11:30:15;103023.75;;;15.32;100.00
74163;BME280;62515;52.758;5.076;2023-05-17T11:32:46;103024.63;;;15.93;100.00
74163;BME280;62515;52.758;5.076;2023-05-17T11:35:15;103029.16;;;15.63;100.00
74163;BME280;62515;52.758;5.076;2023-05-17T11:37:43;103014.75;;;16.52;100.00
74163;BME280;62515;52.758;5.076;2023-05-17T11:40:11;103018.22;;;16.54;96.82
74163;BME280;62515;52.758;5.076;2023-05-17T11:42:38;103026.19;;;15.05;100.00
74163;BME280;62515;52.758;5.076;2023-05-17T11:45:06;103031.53;;;15.67;100.00
74163;BME280;62515;52.758;5.076;2023-05-17T11:47:37;103026.72;;;15.27;100.00
74163;BME280;62515;52.758;5.076;2023-05-17T11:50:06;103000.38;;;16.81;100.00
74163;BME280;62515;52.758;5.076;2023-05-17T11:52:33;103014.22;;;17.03;100.00
74163;BME280;62515;52.758;5.076;2023-05-17T11:55:00;103010.59;;;16.76;100.00
74163;BME280;62515;52.758;5.076;2023-05-17T11:57:30;103022.75;;;15.50;100.00
74163;BME280;62515;52.758;5.076;2023-05-17T11:59:58;103011.66;;;15.40;100.00
74163;BME280;62515;52.758;5.076;2023-05-17T12:02:26;103008.63;;;15.92;100.00
74163;BME280;62515;52.758;5.076;2023-05-17T12:04:55;103009.38;;;16.52;100.00
74163;BME280;62515;52.758;5.076;2023-05-17T12:07:22;103016.09;;;16.31;100.00
74163;BME280;62515;52.758;5.076;2023-05-17T12:09:50;103022.13;;;14.98;100.00
74163;BME280;62515;52.758;5.076;2023-05-17T12:12:19;102988.44;;;14.77;100.00
74163;BME280;62515;52.758;5.076;2023-05-17T12:14:46;103003.34;;;15.90;100.00
74163;BME280;62515;52.758;5.076;2023-05-17T12:20:10;102996.75;;;17.64;100.00
74163;BME280;62515;52.758;5.076;2023-05-17T12:22:52;102994.03;;;16.40;100.00
74163;BME280;62515;52.758;5.076;2023-05-17T12:25:19;102996.31;;;16.46;100.00
74163;BME280;62515;52.758;5.076;2023-05-17T12:27:46;102998.69;;;16.80;100.00
74163;BME280;62515;52.758;5.076;2023-05-17T12:30:13;102969.09;;;16.80;100.00
74163;BME280;62515;52.758;5.076;2023-05-17T12:32:41;102984.97;;;17.11;100.00
74163;BME280;62515;52.758;5.076;2023-05-17T12:35:10;102982.91;;;16.88;92.86
74163;BME280;62515;52.758;5.076;2023-05-17T12:37:37;103000.47;;;15.32;100.00
74163;BME280;62515;52.758;5.076;2023-05-17T12:40:06;102989.34;;;14.60;100.00
74163;BME280;62515;52.758;5.076;2023-05-17T12:42:33;102965.53;;;16.51;100.00
74163;BME280;62515;52.758;5.076;2023-05-17T12:45:00;102982.34;;;16.69;98.59
74163;BME280;62515;52.758;5.076;2023-05-17T12:47:29;102976.03;;;17.38;100.00
74163;BME280;62515;52.758;5.076;2023-05-17T12:49:59;102974.53;;;17.07;100.00
74163;BME280;62515;52.758;5.076;2023-05-17T12:52:32;102974.53;;;17.60;91.62
74163;BME280;62515;52.758;5.076;2023-05-17T12:55:01;102979.66;;;17.51;96.69
74163;BME280;62515;52.758;5.076;2023-05-17T12:57:28;102982.91;;;17.56;97.10
74163;BME280;62515;52.758;5.076;2023-05-17T12:59:55;102980.84;;;17.06;100.00